Sturgeon Bay, WI (54235)

12:14 PM CST on December 22, 2014 (GMT -0600)
Leif Everson Observatory | Change Station
CLOSE
Current Station
Personal Weather Station
Location: Sturgeon Bay, WI
Elevation: 636 ft
Nearby Weather Stations

Elev 636 ft 44.83 °N, 87.34 °W | Updated 1 minute ago

Overcast
Overcast
35.2 °F
Feels Like 28 °F
N
10.0
Wind Variable Wind from SSE
Gusts 12.0 mph

Today
High -- | Low -- °F
--% Chance of Precip.
Yesterday
High -- | Low -- °F
Precip. -- in
7:24 AM 4:11 PM
New Moon, 1% visible
Pressure 29.89 in
Visibility 6.0 miles
Clouds Overcast 1100 ft
Windchill 28 °F
Dew Point 31 °F
Humidity 86%
Rainfall 0.00 in
Snow Depth Not available.
UV 0.6 out of 12
Pollen .10 out of 12
Air Quality Not available.
Flu Activity Not available.
METAR KSUE 221755Z AUTO 15015G18KT 6SM OVC011 02/M02 A2989 RMK AO1 10020 20020 57020

More Conditions Fewer Conditions

Pressure 29.89 in
Visibility 6.0 miles
Clouds Overcast 1100 ft
Windchill 28 °F
Dew Point 31 °F
Humidity 86%
Rainfall 0.00 in
Snow Depth Not available.
UV 0.6 out of 12
Pollen .10 out of 12
Air Quality Not available.
Flu Activity Not available.
METAR KSUE 221755Z AUTO 15015G18KT 6SM OVC011 02/M02 A2989 RMK AO1 10020 20020 57020

More Conditions Fewer Conditions

10-Day Weather Forecast

Almanac

Astronomy

Dec. 22, 2014 Rise Set
Actual Time
Civil Twilight
Nautical Twilight
Astronomical Twilight
Moon
Length of Visible Light
Length of Day
Tomorrow will be .
, % of the Moon is Illuminated

Today's Extremes

State Highs State Lows

Community

WunderPhotos

Upload Photos

1,779,663 photos uploaded!

WunderBlogs® & News

Nearby

Air Quality

  Air Quality AQ Index Pollutant
Not available.

Snow Depth

Station Depth Elevation

Earthquake Activity

City Distance Mag. Time & Date
Minimum magnitude displayed is 2.5.

Coastal Water Temperatures

Place Temperature

Nearby Weather Stations